Weather at Hato El Carito Airport

Public forecast

Using degrees Celsius for public forecast. Weather courtesy of forecast.io.

Closest aviation weather report (METAR) to Hato El Carito Airport

Report is more than 6 hours old.

Closest report is San Carlos Airport, 38.0 nm (70.4 km) WNW. Retrieved 2020/10/10 17:02 UTC (1 year ago):

SVCJ 101702Z AUTO 00000KT NCD 31/// Q////

Closest aviation forecast (TAF) to Hato El Carito Airport

Forecast is more than 12 hours old.

Closest forecast is San Carlos Airport, 38.0 nm (70.4 km) WNW. Retrieved 2019/05/20 00:00 UTC (3 years ago):

TAF SVCJ 202200Z 2100/2200 09008KT 9000 SCT016 BKN020 TX35/2115Z TN26/2103Z BECMG 2100/2104 09010KT 9999 SCT016 BKN020